Other Surface Observations
Issued by NWS Great Falls, MT

Home | Current Version | Previous Version | Text Only | Print | Product List | Glossary On
Versions: 1 2 3 4 5 6 7 8 9 10 11 12 13 14 15 16 17 18 19 20 21 22 23 24 25 26 27 28 29 30 31 32 33 34 35 36 37 38 39 40 41 42 43 44 45 46 47 48 49 50
207
SXUS55 KTFX 230444
OSOTFX

AREA AWOS OBSERVATIONS
NATIONAL WEATHER SERVICE GREAT FALLS MT
1044 PM MDT Sun Apr 22 2018

METAR K3U3 230443Z AUTO 31000KT 07/M06 A3013
METAR KS71 230444Z AUTO 34003KT 10SM 07/M02 A3022
METAR K38S 230444Z AUTO 34005KT 10SM 08/M06 A3016
METAR K6S5 230443Z AUTO 31006 10SM 09/M05 A3014
METAR K1S3 230443Z AUTO 02005KT 12/01 A3008
METAR KPWD 230443Z AUTO 01008KT 10SM 07/M02 A3014
METAR KPO1 230443Z AUTO 01005KT  10SM 07/M02 A3016



USA.gov is the U.S. government's official web portal to all federal, state and local government web resources and services.